createdAt,value
2022-12-18T00:00:52.631Z,3.10
2022-12-18T00:01:52.759Z,3.00
2022-12-18T00:02:52.592Z,3.10
2022-12-18T00:03:52.402Z,3.20
2022-12-18T00:04:53.049Z,2.00
2022-12-18T00:05:53.065Z,2.80
2022-12-18T00:06:53.973Z,2.70
2022-12-18T00:07:53.110Z,3.10
2022-12-18T00:08:53.189Z,3.30
2022-12-18T00:09:53.781Z,3.00
2022-12-18T00:10:53.357Z,5.30
2022-12-18T00:11:53.114Z,5.50
2022-12-18T00:12:53.278Z,3.20
2022-12-18T00:14:06.991Z,4.90
2022-12-18T00:14:52.237Z,4.90
2022-12-18T00:15:52.556Z,2.70
2022-12-18T00:16:53.020Z,3.20
2022-12-18T00:17:53.354Z,3.90
2022-12-18T00:18:51.795Z,4.30
2022-12-18T00:19:53.692Z,4.90
2022-12-18T00:21:05.013Z,4.80
2022-12-18T00:21:53.334Z,5.40
2022-12-18T00:22:52.341Z,3.90
2022-12-18T00:23:51.973Z,3.10
2022-12-18T00:24:52.154Z,2.20
2022-12-18T00:25:52.506Z,2.10
2022-12-18T00:26:51.895Z,2.50
2022-12-18T00:27:51.776Z,1.40
2022-12-18T00:28:51.897Z,1.30
2022-12-18T00:29:56.273Z,1.00
2022-12-18T00:30:51.840Z,2.00
2022-12-18T00:31:51.819Z,1.40
2022-12-18T00:32:51.650Z,1.00
2022-12-18T00:33:55.143Z,1.60
2022-12-18T00:34:52.043Z,1.20
2022-12-18T00:35:51.968Z,1.20
2022-12-18T00:36:52.236Z,1.60
2022-12-18T00:37:51.541Z,1.70
2022-12-18T00:38:52.280Z,0.80
2022-12-18T00:39:52.046Z,0.60
2022-12-18T00:40:53.242Z,1.50
2022-12-18T00:41:51.848Z,1.30
2022-12-18T00:42:51.841Z,1.20
2022-12-18T00:43:51.944Z,1.00
2022-12-18T00:44:52.017Z,1.00
2022-12-18T00:45:51.725Z,1.40
2022-12-18T00:46:51.555Z,1.00
2022-12-18T00:47:52.919Z,0.80
2022-12-18T00:48:51.803Z,1.20
2022-12-18T00:49:52.619Z,1.10
2022-12-18T00:50:51.745Z,1.30
2022-12-18T00:51:51.633Z,1.00
2022-12-18T00:52:51.442Z,1.40
2022-12-18T00:53:51.897Z,1.20
2022-12-18T00:54:51.609Z,1.20
2022-12-18T00:55:51.704Z,1.00
2022-12-18T00:56:51.528Z,1.00
2022-12-18T00:57:51.510Z,1.20
2022-12-18T00:58:51.773Z,1.10
2022-12-18T00:59:51.625Z,1.20
2022-12-18T01:00:51.640Z,0.80
2022-12-18T01:01:51.658Z,0.90
2022-12-18T01:02:51.543Z,1.20
2022-12-18T01:03:51.760Z,0.90
2022-12-18T01:04:53.017Z,0.40
2022-12-18T01:05:51.548Z,1.20
2022-12-18T01:06:51.337Z,1.40
2022-12-18T01:07:52.322Z,0.90
2022-12-18T01:08:51.292Z,0.90
2022-12-18T01:09:51.762Z,1.20
2022-12-18T01:10:51.398Z,0.60
2022-12-18T01:11:51.094Z,0.80
2022-12-18T01:12:51.466Z,0.80
2022-12-18T01:13:51.456Z,0.60
2022-12-18T01:14:52.827Z,1.20
2022-12-18T01:15:53.094Z,0.90
2022-12-18T01:16:51.517Z,0.80
2022-12-18T01:17:51.120Z,1.70
2022-12-18T01:18:51.404Z,1.60
2022-12-18T01:19:52.099Z,1.10
2022-12-18T01:20:51.701Z,1.30
2022-12-18T01:21:51.402Z,0.70
2022-12-18T01:22:51.996Z,0.60
2022-12-18T01:23:51.315Z,0.80
2022-12-18T01:24:51.448Z,0.80
2022-12-18T01:25:51.142Z,0.50
2022-12-18T01:26:51.376Z,1.10
2022-12-18T01:27:51.174Z,1.20
2022-12-18T01:28:51.185Z,1.50
2022-12-18T01:29:51.232Z,1.40
2022-12-18T01:30:50.951Z,0.80
2022-12-18T01:31:51.003Z,1.00
2022-12-18T01:32:51.464Z,0.70
2022-12-18T01:33:52.469Z,0.70
2022-12-18T01:34:51.772Z,1.10
2022-12-18T01:35:51.181Z,1.10
2022-12-18T01:36:50.832Z,0.80
2022-12-18T01:37:50.818Z,0.90
2022-12-18T01:38:50.850Z,0.70
2022-12-18T01:39:51.900Z,0.60
2022-12-18T01:40:51.418Z,1.10
2022-12-18T01:41:51.379Z,1.10
2022-12-18T01:42:51.374Z,0.70
2022-12-18T01:43:50.886Z,1.10
2022-12-18T01:44:50.899Z,0.40
2022-12-18T01:45:51.304Z,1.60
2022-12-18T01:46:51.074Z,0.30
2022-12-18T01:47:51.241Z,1.30
2022-12-18T01:48:51.867Z,1.20
2022-12-18T01:49:50.705Z,0.60
2022-12-18T01:50:51.070Z,0.80
2022-12-18T01:51:51.020Z,0.90
2022-12-18T01:52:51.076Z,0.70
2022-12-18T01:53:50.768Z,0.80
2022-12-18T01:54:51.712Z,0.90
2022-12-18T01:55:51.037Z,0.80
2022-12-18T01:56:50.763Z,1.00
2022-12-18T01:57:51.874Z,1.00
2022-12-18T01:58:50.477Z,0.90
2022-12-18T01:59:51.640Z,0.50
2022-12-18T02:00:51.036Z,0.90
2022-12-18T02:01:50.538Z,1.00
2022-12-18T02:02:50.639Z,0.60
2022-12-18T02:03:50.586Z,0.80
2022-12-18T02:04:50.476Z,1.00
2022-12-18T02:05:51.549Z,0.30
2022-12-18T02:06:51.079Z,0.60
2022-12-18T02:07:52.897Z,1.00
2022-12-18T02:08:50.881Z,0.90
2022-12-18T02:09:50.983Z,0.90
2022-12-18T02:10:50.441Z,1.00
2022-12-18T02:11:50.590Z,1.00
2022-12-18T02:12:50.502Z,0.40
2022-12-18T02:13:50.825Z,1.10
2022-12-18T02:14:51.203Z,1.00
2022-12-18T02:15:50.514Z,0.80
2022-12-18T02:16:50.470Z,1.00
2022-12-18T02:17:50.137Z,0.50
2022-12-18T02:18:50.699Z,1.30
2022-12-18T02:19:50.872Z,0.60
2022-12-18T02:20:50.443Z,0.80
2022-12-18T02:21:50.390Z,0.50
2022-12-18T02:22:50.480Z,1.30
2022-12-18T02:23:50.127Z,1.50
2022-12-18T02:24:51.157Z,1.30
2022-12-18T02:25:50.787Z,0.40
2022-12-18T02:26:50.383Z,0.80
2022-12-18T02:27:50.115Z,1.00
2022-12-18T02:28:50.656Z,1.20
2022-12-18T02:29:57.638Z,0.80
2022-12-18T02:30:51.520Z,0.90
2022-12-18T02:31:50.098Z,0.90
2022-12-18T02:32:50.103Z,1.00
2022-12-18T02:33:50.397Z,0.90
2022-12-18T02:34:50.089Z,0.60
2022-12-18T02:35:50.359Z,1.00
2022-12-18T02:36:50.602Z,1.00
2022-12-18T02:37:50.067Z,0.70
2022-12-18T02:38:50.087Z,1.00
2022-12-18T02:39:50.078Z,0.90
2022-12-18T02:40:51.156Z,1.50
2022-12-18T02:41:50.022Z,0.60
2022-12-18T02:42:50.608Z,1.10
2022-12-18T02:43:50.032Z,1.00
2022-12-18T02:44:50.078Z,1.20
2022-12-18T02:45:50.809Z,0.40
2022-12-18T02:46:50.065Z,0.50
2022-12-18T02:47:49.847Z,0.70
2022-12-18T02:48:50.030Z,0.80
2022-12-18T02:49:49.751Z,0.90
2022-12-18T02:50:50.578Z,0.80
2022-12-18T02:51:50.024Z,0.70
2022-12-18T02:52:50.046Z,0.80
2022-12-18T02:53:50.224Z,0.80
2022-12-18T02:54:51.461Z,0.40
2022-12-18T02:55:49.732Z,0.80
2022-12-18T02:56:49.834Z,0.40
2022-12-18T02:57:49.756Z,1.10
2022-12-18T02:58:49.754Z,0.50
2022-12-18T02:59:49.832Z,0.30
2022-12-18T03:00:50.075Z,0.70
2022-12-18T03:01:49.682Z,0.50
2022-12-18T03:02:49.836Z,1.30
2022-12-18T03:03:49.689Z,0.80
2022-12-18T03:04:49.695Z,0.40
2022-12-18T03:05:49.712Z,1.10
2022-12-18T03:06:50.252Z,0.60
2022-12-18T03:07:49.778Z,0.60
2022-12-18T03:08:49.728Z,0.70
2022-12-18T03:09:49.936Z,0.60
2022-12-18T03:10:49.617Z,1.50
2022-12-18T03:11:49.766Z,0.80
2022-12-18T03:12:50.405Z,0.90
2022-12-18T03:13:49.772Z,0.70
2022-12-18T03:14:49.667Z,0.50
2022-12-18T03:15:49.783Z,0.70
2022-12-18T03:16:49.638Z,0.70
2022-12-18T03:17:49.387Z,0.80
2022-12-18T03:18:49.902Z,0.70
2022-12-18T03:19:51.041Z,0.50
2022-12-18T03:20:49.678Z,1.10
2022-12-18T03:21:49.482Z,1.20
2022-12-18T03:22:49.745Z,0.80
2022-12-18T03:23:49.400Z,1.20
2022-12-18T03:24:49.950Z,0.60
2022-12-18T03:25:52.109Z,0.40
2022-12-18T03:26:49.444Z,0.70
2022-12-18T03:27:49.509Z,0.60
2022-12-18T03:28:50.110Z,0.40
2022-12-18T03:29:49.371Z,0.70
2022-12-18T03:30:49.725Z,0.90
2022-12-18T03:31:49.377Z,0.70
2022-12-18T03:32:49.423Z,0.80
2022-12-18T03:33:49.339Z,1.00
2022-12-18T03:34:50.250Z,0.80
2022-12-18T03:35:50.042Z,0.50
2022-12-18T03:36:49.824Z,1.40
2022-12-18T03:37:49.071Z,0.90
2022-12-18T03:38:49.327Z,0.80
2022-12-18T03:39:50.748Z,0.60
2022-12-18T03:40:49.334Z,0.80
2022-12-18T03:41:49.688Z,0.60
2022-12-18T03:42:49.936Z,1.10
2022-12-18T03:43:49.102Z,0.50
2022-12-18T03:44:49.055Z,0.60
2022-12-18T03:45:49.424Z,0.90
2022-12-18T03:46:49.281Z,1.00
2022-12-18T03:47:50.997Z,0.50
2022-12-18T03:48:49.591Z,0.70
2022-12-18T03:49:48.998Z,0.70
2022-12-18T03:50:49.571Z,0.50
2022-12-18T03:51:49.019Z,0.90
2022-12-18T03:52:49.202Z,0.90
2022-12-18T03:53:50.620Z,0.70
2022-12-18T03:54:50.422Z,0.70
2022-12-18T03:55:48.975Z,1.10
2022-12-18T03:56:49.259Z,0.90
2022-12-18T03:57:49.548Z,1.00
2022-12-18T03:58:48.976Z,0.80
2022-12-18T03:59:52.674Z,1.00
2022-12-18T04:00:49.686Z,0.70
2022-12-18T04:01:49.048Z,1.40
2022-12-18T04:02:49.108Z,0.70
2022-12-18T04:03:49.848Z,0.70
2022-12-18T04:04:48.997Z,0.90
2022-12-18T04:05:49.489Z,0.60
2022-12-18T04:06:50.137Z,0.80
2022-12-18T04:07:48.921Z,0.80
2022-12-18T04:08:49.158Z,0.40
2022-12-18T04:09:49.232Z,0.60
2022-12-18T04:10:49.542Z,0.50
2022-12-18T04:11:48.916Z,0.50
2022-12-18T04:12:49.217Z,0.70
2022-12-18T04:13:50.059Z,1.00
2022-12-18T04:14:49.224Z,0.90
2022-12-18T04:15:48.853Z,1.20
2022-12-18T04:16:49.189Z,1.30
2022-12-18T04:17:48.923Z,0.90
2022-12-18T04:18:49.248Z,0.80
2022-12-18T04:19:49.205Z,0.70
2022-12-18T04:20:48.881Z,0.60
2022-12-18T04:21:49.421Z,0.50
2022-12-18T04:22:49.152Z,0.50
2022-12-18T04:23:48.675Z,0.60
2022-12-18T04:24:50.343Z,0.60
2022-12-18T04:25:48.650Z,0.80
2022-12-18T04:26:48.636Z,0.40
2022-12-18T04:27:48.608Z,0.90
2022-12-18T04:28:48.612Z,1.10
2022-12-18T04:29:48.647Z,0.80
2022-12-18T04:30:48.626Z,0.60
2022-12-18T04:31:53.204Z,1.10
2022-12-18T04:32:52.149Z,0.40
2022-12-18T04:33:48.691Z,0.60
2022-12-18T04:34:48.653Z,0.60
2022-12-18T04:35:48.635Z,0.40
2022-12-18T04:36:48.886Z,1.20
2022-12-18T04:37:48.539Z,0.70
2022-12-18T04:38:48.941Z,0.80
2022-12-18T04:39:48.365Z,1.20
2022-12-18T04:40:48.858Z,0.90
2022-12-18T04:41:49.222Z,0.60
2022-12-18T04:42:48.622Z,0.50
2022-12-18T04:43:48.933Z,0.90
2022-12-18T04:44:48.541Z,0.60
2022-12-18T04:45:48.291Z,0.80
2022-12-18T04:46:48.328Z,1.00
2022-12-18T04:47:49.582Z,0.50
2022-12-18T04:48:48.249Z,0.70
2022-12-18T04:49:48.523Z,0.80
2022-12-18T04:50:48.831Z,0.60
2022-12-18T04:51:48.110Z,0.70
2022-12-18T04:52:48.418Z,0.50
2022-12-18T04:53:48.263Z,0.90
2022-12-18T04:54:48.233Z,0.50
2022-12-18T04:55:48.799Z,1.00
2022-12-18T04:56:48.258Z,1.00
2022-12-18T04:57:48.477Z,0.70
2022-12-18T04:58:48.219Z,0.50
2022-12-18T04:59:48.453Z,0.70
2022-12-18T05:00:48.850Z,0.50
2022-12-18T05:01:48.489Z,0.40
2022-12-18T05:02:48.767Z,0.80
2022-12-18T05:03:48.129Z,0.30
2022-12-18T05:04:48.467Z,0.60
2022-12-18T05:05:48.389Z,0.80
2022-12-18T05:06:48.964Z,1.30
2022-12-18T05:07:48.681Z,0.80
2022-12-18T05:08:47.985Z,0.50
2022-12-18T05:09:48.939Z,0.60
2022-12-18T05:10:48.608Z,0.40
2022-12-18T05:11:49.558Z,0.60
2022-12-18T05:12:48.484Z,0.70
2022-12-18T05:13:47.996Z,0.80
2022-12-18T05:14:48.147Z,1.00
2022-12-18T05:15:48.903Z,1.10
2022-12-18T05:16:48.133Z,0.60
2022-12-18T05:17:48.281Z,1.50
2022-12-18T05:18:48.983Z,0.60
2022-12-18T05:19:48.032Z,1.10
2022-12-18T05:20:48.135Z,0.60
2022-12-18T05:21:48.639Z,0.90
2022-12-18T05:22:48.356Z,0.30
2022-12-18T05:23:49.613Z,1.10
2022-12-18T05:24:48.346Z,0.70
2022-12-18T05:25:48.526Z,0.40
2022-12-18T05:26:48.204Z,0.50
2022-12-18T05:27:48.587Z,1.30
2022-12-18T05:28:48.149Z,0.50
2022-12-18T05:29:48.320Z,1.20
2022-12-18T05:30:47.845Z,0.60
2022-12-18T05:31:47.945Z,0.90
2022-12-18T05:32:47.595Z,0.70
2022-12-18T05:33:48.173Z,0.50
2022-12-18T05:34:47.858Z,0.50
2022-12-18T05:35:48.831Z,0.70
2022-12-18T05:36:48.255Z,1.20
2022-12-18T05:37:47.709Z,0.60
2022-12-18T05:38:47.569Z,0.60
2022-12-18T05:39:48.260Z,0.60
2022-12-18T05:40:47.809Z,0.50
2022-12-18T05:41:47.517Z,0.60
2022-12-18T05:42:47.821Z,0.60
2022-12-18T05:43:51.674Z,0.50
2022-12-18T05:44:47.526Z,0.60
2022-12-18T05:45:48.278Z,0.50
2022-12-18T05:46:47.565Z,0.40
2022-12-18T05:47:47.497Z,0.70
2022-12-18T05:48:47.598Z,1.10
2022-12-18T05:49:47.691Z,0.80
2022-12-18T05:50:47.750Z,0.80
2022-12-18T05:51:49.251Z,0.80
2022-12-18T05:52:48.671Z,0.50
2022-12-18T05:53:48.052Z,0.40
2022-12-18T05:54:48.004Z,0.30
2022-12-18T05:55:48.219Z,0.30
2022-12-18T05:56:48.851Z,0.70
2022-12-18T05:57:47.639Z,1.20
2022-12-18T05:58:48.302Z,0.60
2022-12-18T05:59:48.119Z,0.60
2022-12-18T06:00:48.070Z,1.30
2022-12-18T06:01:48.466Z,1.00
2022-12-18T06:02:47.726Z,1.00
2022-12-18T06:03:48.468Z,1.30
2022-12-18T06:04:48.286Z,0.70
2022-12-18T06:05:47.233Z,0.80
2022-12-18T06:06:47.736Z,0.60
2022-12-18T06:07:47.906Z,1.00
2022-12-18T06:08:47.745Z,0.60
2022-12-18T06:09:47.246Z,0.60
2022-12-18T06:10:48.094Z,0.40
2022-12-18T06:11:47.382Z,0.40
2022-12-18T06:12:47.376Z,0.90
2022-12-18T06:13:48.246Z,1.00
2022-12-18T06:14:47.413Z,0.60
2022-12-18T06:15:47.848Z,1.00
2022-12-18T06:16:47.662Z,0.50
2022-12-18T06:17:48.942Z,0.40
2022-12-18T06:18:47.513Z,0.70
2022-12-18T06:19:47.474Z,0.70
2022-12-18T06:20:47.662Z,0.50
2022-12-18T06:21:47.278Z,0.70
2022-12-18T06:22:47.420Z,0.80
2022-12-18T06:23:47.067Z,0.70
2022-12-18T06:24:47.325Z,0.50
2022-12-18T06:25:48.118Z,0.50
2022-12-18T06:26:47.298Z,0.80
2022-12-18T06:27:46.907Z,0.80
2022-12-18T06:28:47.424Z,0.70
2022-12-18T06:29:46.963Z,0.30
2022-12-18T06:30:47.156Z,0.60
2022-12-18T06:31:48.381Z,0.80
2022-12-18T06:32:50.479Z,0.70
2022-12-18T06:33:48.612Z,0.70
2022-12-18T06:34:46.969Z,0.70
2022-12-18T06:35:47.063Z,1.10
2022-12-18T06:36:46.727Z,0.60
2022-12-18T06:37:47.228Z,0.70
2022-12-18T06:38:46.782Z,0.50
2022-12-18T06:39:47.358Z,0.80
2022-12-18T06:40:46.991Z,0.60
2022-12-18T06:41:47.012Z,0.90
2022-12-18T06:42:47.027Z,0.30
2022-12-18T06:43:47.088Z,0.40
2022-12-18T06:44:46.919Z,1.80
2022-12-18T06:45:47.642Z,1.40
2022-12-18T06:46:46.773Z,0.70
2022-12-18T06:47:49.442Z,0.70
2022-12-18T06:48:46.507Z,0.80
2022-12-18T06:49:46.946Z,0.90
2022-12-18T06:50:47.375Z,0.30
2022-12-18T06:51:47.586Z,0.80
2022-12-18T06:52:47.440Z,0.40
2022-12-18T06:53:47.800Z,0.80
2022-12-18T06:54:49.213Z,1.10
2022-12-18T06:55:47.451Z,0.80
2022-12-18T06:56:47.751Z,1.10
2022-12-18T06:57:47.463Z,0.80
2022-12-18T06:58:47.744Z,0.50
2022-12-18T06:59:46.710Z,0.40
2022-12-18T07:00:46.611Z,0.50
2022-12-18T07:01:48.017Z,0.80
2022-12-18T07:02:46.556Z,0.90
2022-12-18T07:03:46.411Z,0.90
2022-12-18T07:04:46.408Z,0.30
2022-12-18T07:05:46.525Z,0.50
2022-12-18T07:06:46.997Z,0.70
2022-12-18T07:07:46.466Z,0.50
2022-12-18T07:08:48.167Z,0.60
2022-12-18T07:09:48.026Z,0.30
2022-12-18T07:10:49.753Z,0.60
2022-12-18T07:11:48.640Z,0.80
2022-12-18T07:12:46.978Z,1.00
2022-12-18T07:13:46.837Z,1.00
2022-12-18T07:14:47.728Z,0.80
2022-12-18T07:15:46.384Z,0.30
2022-12-18T07:16:46.181Z,0.90
2022-12-18T07:17:46.931Z,0.70
2022-12-18T07:18:46.091Z,0.60
2022-12-18T07:19:46.790Z,0.90
2022-12-18T07:20:46.090Z,0.50
2022-12-18T07:21:46.103Z,0.20
2022-12-18T07:22:46.118Z,0.60
2022-12-18T07:23:46.982Z,0.50
2022-12-18T07:24:46.293Z,0.50
2022-12-18T07:25:46.706Z,0.80
2022-12-18T07:26:46.083Z,0.60
2022-12-18T07:27:46.771Z,0.60
2022-12-18T07:28:46.211Z,0.40
2022-12-18T07:29:46.808Z,0.90
2022-12-18T07:30:46.517Z,0.70
2022-12-18T07:31:46.897Z,0.90
2022-12-18T07:32:46.267Z,0.60
2022-12-18T07:33:47.687Z,0.50
2022-12-18T07:34:46.453Z,0.60
2022-12-18T07:35:46.851Z,0.50
2022-12-18T07:36:45.951Z,0.30
2022-12-18T07:37:46.574Z,0.80
2022-12-18T07:38:45.854Z,0.70
2022-12-18T07:39:47.720Z,0.80
2022-12-18T07:40:45.741Z,0.80
2022-12-18T07:41:47.172Z,0.60
2022-12-18T07:42:45.739Z,0.50
2022-12-18T07:43:45.820Z,0.80
2022-12-18T07:44:45.998Z,0.70
2022-12-18T07:45:46.113Z,0.70
2022-12-18T07:46:45.971Z,0.40
2022-12-18T07:47:45.726Z,1.00
2022-12-18T07:48:49.227Z,0.60
2022-12-18T07:49:47.940Z,0.60
2022-12-18T07:50:45.732Z,1.10
2022-12-18T07:51:47.071Z,0.40
2022-12-18T07:52:45.909Z,0.60
2022-12-18T07:53:45.992Z,0.70
2022-12-18T07:54:48.738Z,0.50
2022-12-18T07:56:25.083Z,0.60
2022-12-18T07:56:46.799Z,0.30
2022-12-18T07:57:57.674Z,0.80
2022-12-18T07:58:46.777Z,0.40
2022-12-18T07:59:45.567Z,0.50
2022-12-18T08:00:45.702Z,1.00
2022-12-18T08:01:46.120Z,0.70
2022-12-18T08:02:46.673Z,1.50
2022-12-18T08:03:45.879Z,1.00
2022-12-18T08:04:45.947Z,1.10
2022-12-18T08:05:45.901Z,0.40
2022-12-18T08:06:47.908Z,0.40
2022-12-18T08:07:45.587Z,0.50
2022-12-18T08:08:45.779Z,0.40
2022-12-18T08:09:49.413Z,1.10
2022-12-18T08:10:46.301Z,0.80
2022-12-18T08:11:47.116Z,0.70
2022-12-18T08:12:46.774Z,0.90
2022-12-18T08:13:46.048Z,0.60
2022-12-18T08:14:46.460Z,0.70
2022-12-18T08:15:46.260Z,0.60
2022-12-18T08:16:45.631Z,0.60
2022-12-18T08:17:47.624Z,0.90
2022-12-18T08:18:47.000Z,1.00
2022-12-18T08:19:45.362Z,0.60
2022-12-18T08:20:45.592Z,0.50
2022-12-18T08:21:46.399Z,0.80
2022-12-18T08:22:46.657Z,0.80
2022-12-18T08:23:46.388Z,0.60
2022-12-18T08:24:46.761Z,0.80
2022-12-18T08:25:45.277Z,0.90
2022-12-18T08:27:06.653Z,0.80
2022-12-18T08:27:47.335Z,1.30
2022-12-18T08:28:45.888Z,0.60
2022-12-18T08:29:46.055Z,0.50
2022-12-18T08:30:46.945Z,1.40
2022-12-18T08:31:46.119Z,0.40
2022-12-18T08:32:45.536Z,0.40
2022-12-18T08:33:45.896Z,0.90
2022-12-18T08:34:46.179Z,0.70
2022-12-18T08:35:46.288Z,0.50
2022-12-18T08:36:45.549Z,0.70
2022-12-18T08:37:46.129Z,0.60
2022-12-18T08:38:46.206Z,0.30
2022-12-18T08:39:46.744Z,0.70
2022-12-18T08:40:46.528Z,0.70
2022-12-18T08:41:45.757Z,0.40
2022-12-18T08:42:45.460Z,0.90
2022-12-18T08:43:45.818Z,0.40
2022-12-18T08:44:45.677Z,0.30
2022-12-18T08:45:45.999Z,0.90
2022-12-18T08:46:47.788Z,0.70
2022-12-18T08:47:46.318Z,0.90
2022-12-18T08:48:46.979Z,0.50
2022-12-18T08:49:47.939Z,1.10
2022-12-18T08:50:45.536Z,0.70
2022-12-18T08:51:47.589Z,1.60
2022-12-18T08:52:48.662Z,1.40
2022-12-18T08:53:45.791Z,1.00
2022-12-18T08:54:57.908Z,8.20
2022-12-18T08:55:50.492Z,2.40
2022-12-18T08:56:46.431Z,2.30
2022-12-18T08:57:47.154Z,2.20
2022-12-18T08:58:45.485Z,1.30
2022-12-18T08:59:48.274Z,0.90
2022-12-18T09:00:45.744Z,2.40
2022-12-18T09:01:48.676Z,1.50
2022-12-18T09:02:47.585Z,1.00
2022-12-18T09:03:48.776Z,2.50
2022-12-18T09:04:52.389Z,2.50
2022-12-18T09:05:46.107Z,2.10
2022-12-18T09:06:48.508Z,1.10
2022-12-18T09:07:45.472Z,2.30
2022-12-18T09:08:45.451Z,1.50
2022-12-18T09:09:59.559Z,2.50
2022-12-18T09:10:46.231Z,3.00
2022-12-18T09:11:45.437Z,4.70
2022-12-18T09:12:45.562Z,3.40
2022-12-18T09:13:45.497Z,1.80
2022-12-18T09:14:49.098Z,3.10
2022-12-18T09:15:46.459Z,9.50
2022-12-18T09:16:46.222Z,2.40
2022-12-18T09:17:45.584Z,2.60
2022-12-18T09:18:45.113Z,2.50
2022-12-18T09:19:44.602Z,1.60
2022-12-18T09:20:46.258Z,1.40
2022-12-18T09:21:48.271Z,1.40
2022-12-18T09:22:45.796Z,1.40
2022-12-18T09:23:45.649Z,1.00
2022-12-18T09:24:45.775Z,2.00
2022-12-18T09:25:44.574Z,1.50
2022-12-18T09:26:47.974Z,1.10
2022-12-18T09:27:45.104Z,1.30
2022-12-18T09:28:53.551Z,1.50
2022-12-18T09:29:45.046Z,1.00
2022-12-18T09:30:45.357Z,1.60
2022-12-18T09:31:45.843Z,1.50
2022-12-18T09:32:44.455Z,1.70
2022-12-18T09:33:44.438Z,1.60
2022-12-18T09:34:46.114Z,1.60
2022-12-18T09:35:45.751Z,1.10
2022-12-18T09:36:44.441Z,2.30
2022-12-18T09:37:46.367Z,1.70
2022-12-18T09:38:46.256Z,2.90
2022-12-18T09:39:46.629Z,1.50
2022-12-18T09:40:45.875Z,1.70
2022-12-18T09:41:44.723Z,2.10
2022-12-18T09:42:44.486Z,2.70
2022-12-18T09:43:44.447Z,2.20
2022-12-18T09:44:45.904Z,2.00
2022-12-18T09:45:45.245Z,2.20
2022-12-18T09:46:44.320Z,2.10
2022-12-18T09:47:47.276Z,0.80
2022-12-18T09:48:44.564Z,1.70
2022-12-18T09:49:45.669Z,1.90
2022-12-18T09:50:44.612Z,1.30
2022-12-18T09:51:44.528Z,1.40
2022-12-18T09:52:44.791Z,1.80
2022-12-18T09:53:45.014Z,1.20
2022-12-18T09:54:46.291Z,1.70
2022-12-18T09:55:45.266Z,2.00
2022-12-18T09:56:44.832Z,1.40
2022-12-18T09:57:44.712Z,2.10
2022-12-18T09:58:44.845Z,2.10
2022-12-18T09:59:45.082Z,6.80
2022-12-18T10:00:44.031Z,2.10
2022-12-18T10:01:44.681Z,2.80
2022-12-18T10:02:45.270Z,1.60
2022-12-18T10:03:44.156Z,2.80
2022-12-18T10:04:47.319Z,2.90
2022-12-18T10:05:44.171Z,1.90
2022-12-18T10:06:45.738Z,2.30
2022-12-18T10:07:44.961Z,2.10
2022-12-18T10:08:45.172Z,3.20
2022-12-18T10:09:48.400Z,4.50
2022-12-18T10:10:44.576Z,2.50
2022-12-18T10:11:43.859Z,1.80
2022-12-18T10:12:43.857Z,1.40
2022-12-18T10:13:43.863Z,2.00
2022-12-18T10:14:46.042Z,1.10
2022-12-18T10:15:43.868Z,1.50
2022-12-18T10:16:43.859Z,1.60
2022-12-18T10:17:43.750Z,1.70
2022-12-18T10:18:44.036Z,1.40
2022-12-18T10:19:44.079Z,1.20
2022-12-18T10:20:43.959Z,1.10
2022-12-18T10:21:45.625Z,1.00
2022-12-18T10:22:43.573Z,1.10
2022-12-18T10:23:48.175Z,1.40
2022-12-18T10:24:44.641Z,1.20
2022-12-18T10:25:44.806Z,1.10
2022-12-18T10:26:44.011Z,1.70
2022-12-18T10:27:43.744Z,2.20
2022-12-18T10:28:45.508Z,1.20
2022-12-18T10:29:43.794Z,1.40
2022-12-18T10:30:43.592Z,1.70
2022-12-18T10:31:43.713Z,1.30
2022-12-18T10:32:43.768Z,1.50
2022-12-18T10:33:44.059Z,1.80
2022-12-18T10:34:46.542Z,2.40
2022-12-18T10:35:43.610Z,1.90
2022-12-18T10:36:44.671Z,1.20
2022-12-18T10:37:43.581Z,2.00
2022-12-18T10:38:44.061Z,1.80
2022-12-18T10:39:43.679Z,2.00
2022-12-18T10:40:44.992Z,1.90
2022-12-18T10:41:43.543Z,2.20
2022-12-18T10:42:43.506Z,1.70
2022-12-18T10:43:43.548Z,2.10
2022-12-18T10:44:43.575Z,1.80
2022-12-18T10:45:46.368Z,1.90
2022-12-18T10:46:43.574Z,1.40
2022-12-18T10:47:43.391Z,1.70
2022-12-18T10:48:44.352Z,1.40
2022-12-18T10:49:44.166Z,1.20
2022-12-18T10:51:13.808Z,2.20
2022-12-18T10:53:00.867Z,4.40
2022-12-18T10:53:56.730Z,3.40
2022-12-18T10:54:58.445Z,3.00
2022-12-18T10:55:59.084Z,2.40
2022-12-18T10:56:55.752Z,1.60
2022-12-18T10:59:06.101Z,2.90
2022-12-18T11:00:06.343Z,3.90
2022-12-18T11:01:06.101Z,4.00
2022-12-18T11:02:07.045Z,4.10
2022-12-18T11:03:06.202Z,2.40
2022-12-18T11:04:06.014Z,2.20
2022-12-18T11:05:06.247Z,1.30
2022-12-18T11:06:05.992Z,2.30
2022-12-18T11:07:07.117Z,1.70
2022-12-18T11:08:06.051Z,2.30
2022-12-18T11:09:13.273Z,2.60
2022-12-18T11:10:07.193Z,1.00
2022-12-18T11:11:06.012Z,2.00
2022-12-18T11:12:05.887Z,1.70
2022-12-18T11:13:06.001Z,1.50
2022-12-18T11:14:05.846Z,1.50
2022-12-18T11:15:05.872Z,1.40
2022-12-18T11:16:05.897Z,1.10
2022-12-18T11:18:06.831Z,1.00
2022-12-18T11:19:05.885Z,1.60
2022-12-18T11:20:06.711Z,1.30
2022-12-18T11:21:05.803Z,0.90
2022-12-18T11:22:05.784Z,1.20
2022-12-18T11:23:05.797Z,0.80
2022-12-18T11:24:05.792Z,0.80
2022-12-18T11:25:32.629Z,1.20
2022-12-18T11:26:38.160Z,0.50
2022-12-18T11:27:44.219Z,1.10
2022-12-18T11:28:39.504Z,0.60
2022-12-18T11:29:44.930Z,1.00
2022-12-18T11:30:39.122Z,1.10
2022-12-18T11:31:40.900Z,1.40
2022-12-18T11:32:38.314Z,0.90
2022-12-18T11:34:05.126Z,1.70
2022-12-18T11:34:39.943Z,1.00
2022-12-18T11:35:42.136Z,1.50
2022-12-18T11:36:38.044Z,1.10
2022-12-18T11:37:46.328Z,1.30
2022-12-18T11:38:38.252Z,1.30
2022-12-18T11:39:42.969Z,0.70
2022-12-18T11:40:41.317Z,0.70
2022-12-18T11:41:38.695Z,1.10
2022-12-18T11:42:40.442Z,0.50
2022-12-18T11:43:42.443Z,1.40
2022-12-18T11:44:38.028Z,0.80
2022-12-18T11:45:40.814Z,0.90
2022-12-18T11:46:38.016Z,1.10
2022-12-18T11:47:47.599Z,1.10
2022-12-18T11:48:38.333Z,1.40
2022-12-18T11:49:41.146Z,1.20
2022-12-18T11:50:37.813Z,1.10
2022-12-18T11:51:43.067Z,0.70
2022-12-18T11:52:38.253Z,1.20
2022-12-18T11:53:41.855Z,1.20
2022-12-18T11:54:37.833Z,1.40
2022-12-18T11:55:42.088Z,1.20
2022-12-18T11:56:38.702Z,1.00
2022-12-18T11:57:42.815Z,0.50
2022-12-18T11:58:37.753Z,1.00
2022-12-18T11:59:42.259Z,1.30
2022-12-18T12:00:58.726Z,1.20
2022-12-18T12:01:44.289Z,0.50
2022-12-18T12:02:37.800Z,1.00
2022-12-18T12:03:41.321Z,1.00
2022-12-18T12:04:37.979Z,0.80
2022-12-18T12:05:44.363Z,1.20
2022-12-18T12:06:37.632Z,1.20
2022-12-18T12:07:37.769Z,1.00
2022-12-18T12:08:37.552Z,1.40
2022-12-18T12:09:42.091Z,0.90
2022-12-18T12:10:38.558Z,0.80
2022-12-18T12:11:41.895Z,1.00
2022-12-18T12:12:38.709Z,0.90
2022-12-18T12:13:38.725Z,1.40
2022-12-18T12:14:37.474Z,0.90
2022-12-18T12:15:43.475Z,1.20
2022-12-18T12:16:37.598Z,0.70
2022-12-18T12:17:43.567Z,1.40
2022-12-18T12:18:37.454Z,1.00
2022-12-18T12:19:42.465Z,0.70
2022-12-18T12:20:37.450Z,0.90
2022-12-18T12:21:40.868Z,1.20
2022-12-18T12:22:38.394Z,0.90
2022-12-18T12:23:41.819Z,0.80
2022-12-18T12:24:37.358Z,0.70
2022-12-18T12:25:42.605Z,0.80
2022-12-18T12:26:38.260Z,0.80
2022-12-18T12:27:41.772Z,0.70
2022-12-18T12:28:37.666Z,1.20
2022-12-18T12:29:41.300Z,1.10
2022-12-18T12:30:38.244Z,1.00
2022-12-18T12:31:42.455Z,0.80
2022-12-18T12:32:38.186Z,0.50
2022-12-18T12:33:42.062Z,1.00
2022-12-18T12:34:37.309Z,0.60
2022-12-18T12:35:40.120Z,0.90
2022-12-18T12:36:37.639Z,0.80
2022-12-18T12:37:41.808Z,0.90
2022-12-18T12:38:38.097Z,0.50
2022-12-18T12:39:38.304Z,0.60
2022-12-18T12:40:58.763Z,0.90
2022-12-18T12:41:41.727Z,1.10
2022-12-18T12:42:37.197Z,0.90
2022-12-18T12:43:46.123Z,0.70
2022-12-18T12:44:38.181Z,0.60
2022-12-18T12:45:39.236Z,0.80
2022-12-18T12:46:37.235Z,0.70
2022-12-18T12:47:41.155Z,0.90
2022-12-18T12:48:37.088Z,0.80
2022-12-18T12:49:41.277Z,1.10
2022-12-18T12:50:36.995Z,0.90
2022-12-18T12:51:41.477Z,1.60
2022-12-18T12:52:37.060Z,0.90
2022-12-18T12:53:38.147Z,1.00
2022-12-18T12:54:36.969Z,1.00
2022-12-18T12:55:41.743Z,1.50
2022-12-18T12:56:36.901Z,1.40
2022-12-18T12:57:41.405Z,1.00
2022-12-18T12:58:37.018Z,0.70
2022-12-18T12:59:41.259Z,1.00
2022-12-18T13:00:36.836Z,0.90
2022-12-18T13:01:40.543Z,0.80
2022-12-18T13:02:37.665Z,0.90
2022-12-18T13:03:40.778Z,0.90
2022-12-18T13:04:36.845Z,1.60
2022-12-18T13:05:40.866Z,0.80
2022-12-18T13:06:41.607Z,1.70
2022-12-18T13:07:45.227Z,1.50
2022-12-18T13:08:36.761Z,0.70
2022-12-18T13:09:41.472Z,0.40
2022-12-18T13:10:36.879Z,1.00
2022-12-18T13:11:42.228Z,1.60
2022-12-18T13:12:36.822Z,0.90
2022-12-18T13:13:41.624Z,0.90
2022-12-18T13:14:36.687Z,1.30
2022-12-18T13:15:42.182Z,1.30
2022-12-18T13:16:36.727Z,1.30
2022-12-18T13:17:42.420Z,1.00
2022-12-18T13:18:36.723Z,1.00
2022-12-18T13:19:42.522Z,1.70
2022-12-18T13:20:36.572Z,0.90
2022-12-18T13:21:43.511Z,1.10
2022-12-18T13:22:37.660Z,0.90